sensor_id;sensor_type;location;lat;lon;timestamp;pressure;altitude;pressure_sealevel;temperature;humidity
55755;BME280;41674;52.290;-1.474;2022-08-03T00:01:58;100626.46;;;18.99;97.40
55755;BME280;41674;52.290;-1.474;2022-08-03T00:04:29;100608.73;;;19.44;94.33
55755;BME280;41674;52.290;-1.474;2022-08-03T00:07:00;100608.20;;;19.42;95.40
55755;BME280;41674;52.290;-1.474;2022-08-03T00:09:32;100614.01;;;19.36;94.90
55755;BME280;41674;52.290;-1.474;2022-08-03T00:12:04;100615.00;;;18.87;97.33
55755;BME280;41674;52.290;-1.474;2022-08-03T00:14:35;100611.01;;;19.13;96.34
55755;BME280;41674;52.290;-1.474;2022-08-03T00:17:06;100601.52;;;19.43;94.99
55755;BME280;41674;52.290;-1.474;2022-08-03T00:19:37;100607.99;;;18.98;95.28
55755;BME280;41674;52.290;-1.474;2022-08-03T00:22:09;100613.25;;;18.69;96.94
55755;BME280;41674;52.290;-1.474;2022-08-03T00:24:40;100600.88;;;19.11;97.26
55755;BME280;41674;52.290;-1.474;2022-08-03T00:27:12;100609.69;;;18.47;99.54
55755;BME280;41674;52.290;-1.474;2022-08-03T00:29:43;100604.63;;;18.80;98.94
55755;BME280;41674;52.290;-1.474;2022-08-03T00:32:14;100597.40;;;18.79;96.66
55755;BME280;41674;52.290;-1.474;2022-08-03T00:34:46;100591.59;;;19.04;95.20
55755;BME280;41674;52.290;-1.474;2022-08-03T00:37:17;100585.99;;;18.67;98.44
55755;BME280;41674;52.290;-1.474;2022-08-03T00:39:48;100587.59;;;18.93;98.15
55755;BME280;41674;52.290;-1.474;2022-08-03T00:42:20;100583.79;;;18.30;100.00
55755;BME280;41674;52.290;-1.474;2022-08-03T00:44:51;100571.31;;;19.17;96.32
55755;BME280;41674;52.290;-1.474;2022-08-03T00:47:22;100568.58;;;18.49;96.66
55755;BME280;41674;52.290;-1.474;2022-08-03T00:49:53;100576.30;;;18.59;99.80
55755;BME280;41674;52.290;-1.474;2022-08-03T00:52:24;100562.89;;;18.79;98.33
55755;BME280;41674;52.290;-1.474;2022-08-03T00:54:56;100566.47;;;18.28;100.00
55755;BME280;41674;52.290;-1.474;2022-08-03T00:57:28;100564.81;;;18.74;99.19
55755;BME280;41674;52.290;-1.474;2022-08-03T01:00:00;100567.86;;;17.71;100.00
55755;BME280;41674;52.290;-1.474;2022-08-03T01:02:33;100568.18;;;18.16;100.00
55755;BME280;41674;52.290;-1.474;2022-08-03T01:05:05;100570.32;;;17.98;100.00
55755;BME280;41674;52.290;-1.474;2022-08-03T01:07:46;100562.69;;;19.19;98.80
55755;BME280;41674;52.290;-1.474;2022-08-03T01:10:25;100569.15;;;18.57;100.00
55755;BME280;41674;52.290;-1.474;2022-08-03T01:13:03;100565.30;;;18.14;100.00
55755;BME280;41674;52.290;-1.474;2022-08-03T01:15:42;100556.65;;;19.04;96.72
55755;BME280;41674;52.290;-1.474;2022-08-03T01:18:17;100540.91;;;18.88;96.40
55755;BME280;41674;52.290;-1.474;2022-08-03T01:20:53;100559.83;;;18.95;96.75
55755;BME280;41674;52.290;-1.474;2022-08-03T01:23:36;100554.50;;;18.73;97.48
55755;BME280;41674;52.290;-1.474;2022-08-03T01:26:23;100551.20;;;18.89;96.60
55755;BME280;41674;52.290;-1.474;2022-08-03T01:29:06;100557.78;;;18.53;97.30
55755;BME280;41674;52.290;-1.474;2022-08-03T01:31:43;100560.86;;;18.17;100.00
55755;BME280;41674;52.290;-1.474;2022-08-03T01:34:17;100553.15;;;18.64;97.88
55755;BME280;41674;52.290;-1.474;2022-08-03T01:36:53;100551.39;;;19.17;95.74
55755;BME280;41674;52.290;-1.474;2022-08-03T01:39:28;100557.25;;;18.21;98.71
55755;BME280;41674;52.290;-1.474;2022-08-03T01:42:05;100555.19;;;18.97;96.08
55755;BME280;41674;52.290;-1.474;2022-08-03T01:44:40;100561.84;;;18.14;99.74
55755;BME280;41674;52.290;-1.474;2022-08-03T01:47:12;100560.47;;;18.58;97.06
55755;BME280;41674;52.290;-1.474;2022-08-03T01:49:45;100554.00;;;19.12;94.53
55755;BME280;41674;52.290;-1.474;2022-08-03T01:52:19;100557.94;;;19.00;95.52
55755;BME280;41674;52.290;-1.474;2022-08-03T01:54:52;100553.06;;;18.54;94.43
55755;BME280;41674;52.290;-1.474;2022-08-03T01:57:24;100557.79;;;19.14;94.36
55755;BME280;41674;52.290;-1.474;2022-08-03T01:59:59;100548.36;;;19.01;93.14
55755;BME280;41674;52.290;-1.474;2022-08-03T02:02:32;100547.82;;;19.48;92.07
55755;BME280;41674;52.290;-1.474;2022-08-03T02:05:06;100551.16;;;19.44;90.70
55755;BME280;41674;52.290;-1.474;2022-08-03T02:07:40;100556.12;;;18.78;94.77
55755;BME280;41674;52.290;-1.474;2022-08-03T02:10:14;100557.12;;;18.92;94.45
55755;BME280;41674;52.290;-1.474;2022-08-03T02:12:46;100549.56;;;18.86;92.89
55755;BME280;41674;52.290;-1.474;2022-08-03T02:15:18;100546.85;;;18.65;92.59
55755;BME280;41674;52.290;-1.474;2022-08-03T02:17:50;100551.20;;;18.72;94.14
55755;BME280;41674;52.290;-1.474;2022-08-03T02:20:24;100550.10;;;19.33;91.16
55755;BME280;41674;52.290;-1.474;2022-08-03T02:22:57;100557.98;;;18.08;95.02
55755;BME280;41674;52.290;-1.474;2022-08-03T02:25:30;100544.96;;;18.92;92.46
55755;BME280;41674;52.290;-1.474;2022-08-03T02:28:08;100538.49;;;18.92;93.72
55755;BME280;41674;52.290;-1.474;2022-08-03T02:30:44;100533.76;;;18.89;92.34
55755;BME280;41674;52.290;-1.474;2022-08-03T02:33:20;100537.59;;;19.22;92.38
55755;BME280;41674;52.290;-1.474;2022-08-03T02:35:53;100533.00;;;18.48;92.54
55755;BME280;41674;52.290;-1.474;2022-08-03T02:38:28;100546.69;;;18.47;94.44
55755;BME280;41674;52.290;-1.474;2022-08-03T02:41:03;100547.09;;;18.37;93.10
55755;BME280;41674;52.290;-1.474;2022-08-03T02:43:39;100541.83;;;18.91;92.88
55755;BME280;41674;52.290;-1.474;2022-08-03T02:46:16;100546.09;;;18.69;91.90
55755;BME280;41674;52.290;-1.474;2022-08-03T02:48:49;100548.92;;;17.90;95.21
55755;BME280;41674;52.290;-1.474;2022-08-03T02:51:23;100556.58;;;18.50;94.29
55755;BME280;41674;52.290;-1.474;2022-08-03T02:53:57;100549.80;;;18.91;92.71
55755;BME280;41674;52.290;-1.474;2022-08-03T02:56:31;100553.83;;;18.38;95.14
55755;BME280;41674;52.290;-1.474;2022-08-03T02:59:04;100550.08;;;18.56;93.53
55755;BME280;41674;52.290;-1.474;2022-08-03T03:01:37;100542.12;;;18.80;92.22
55755;BME280;41674;52.290;-1.474;2022-08-03T03:04:10;100548.71;;;17.95;96.07
55755;BME280;41674;52.290;-1.474;2022-08-03T03:06:42;100551.55;;;18.28;94.47
55755;BME280;41674;52.290;-1.474;2022-08-03T03:09:14;100550.16;;;18.47;93.54
55755;BME280;41674;52.290;-1.474;2022-08-03T03:11:48;100544.59;;;19.08;91.69
55755;BME280;41674;52.290;-1.474;2022-08-03T03:14:21;100553.25;;;18.63;94.49
55755;BME280;41674;52.290;-1.474;2022-08-03T03:16:54;100546.39;;;19.18;91.26
55755;BME280;41674;52.290;-1.474;2022-08-03T03:19:26;100549.76;;;18.57;92.23
55755;BME280;41674;52.290;-1.474;2022-08-03T03:21:59;100545.97;;;18.64;92.02
55755;BME280;41674;52.290;-1.474;2022-08-03T03:24:34;100545.19;;;18.68;92.22
55755;BME280;41674;52.290;-1.474;2022-08-03T03:27:07;100547.74;;;18.31;94.19
55755;BME280;41674;52.290;-1.474;2022-08-03T03:29:39;100541.98;;;18.82;91.81
55755;BME280;41674;52.290;-1.474;2022-08-03T03:32:10;100544.91;;;18.18;94.98
55755;BME280;41674;52.290;-1.474;2022-08-03T03:34:42;100543.78;;;18.38;92.60
55755;BME280;41674;52.290;-1.474;2022-08-03T03:37:14;100544.51;;;18.43;94.08
55755;BME280;41674;52.290;-1.474;2022-08-03T03:39:45;100540.46;;;19.05;90.77
55755;BME280;41674;52.290;-1.474;2022-08-03T03:42:16;100538.83;;;19.65;86.99
55755;BME280;41674;52.290;-1.474;2022-08-03T03:44:47;100535.27;;;19.34;90.06
55755;BME280;41674;52.290;-1.474;2022-08-03T03:47:19;100534.39;;;18.72;90.86
55755;BME280;41674;52.290;-1.474;2022-08-03T03:49:51;100539.11;;;18.94;91.34
55755;BME280;41674;52.290;-1.474;2022-08-03T03:52:22;100542.82;;;18.92;92.50
55755;BME280;41674;52.290;-1.474;2022-08-03T03:54:53;100550.95;;;18.69;94.48
55755;BME280;41674;52.290;-1.474;2022-08-03T03:57:25;100553.30;;;18.43;95.18
55755;BME280;41674;52.290;-1.474;2022-08-03T03:59:56;100548.99;;;18.93;92.48
55755;BME280;41674;52.290;-1.474;2022-08-03T04:02:27;100545.70;;;18.83;93.16
55755;BME280;41674;52.290;-1.474;2022-08-03T04:04:58;100549.04;;;19.40;90.30
55755;BME280;41674;52.290;-1.474;2022-08-03T04:07:35;100550.61;;;19.48;90.02
55755;BME280;41674;52.290;-1.474;2022-08-03T04:10:12;100546.33;;;18.98;92.49
55755;BME280;41674;52.290;-1.474;2022-08-03T04:12:46;100547.93;;;18.65;93.63
55755;BME280;41674;52.290;-1.474;2022-08-03T04:15:21;100557.65;;;18.08;100.00
55755;BME280;41674;52.290;-1.474;2022-08-03T04:17:56;100548.82;;;17.99;99.65
55755;BME280;41674;52.290;-1.474;2022-08-03T04:20:30;100550.07;;;18.07;98.88
55755;BME280;41674;52.290;-1.474;2022-08-03T04:23:03;100547.37;;;17.28;100.00
55755;BME280;41674;52.290;-1.474;2022-08-03T04:25:36;100548.99;;;18.37;97.19
55755;BME280;41674;52.290;-1.474;2022-08-03T04:28:10;100539.07;;;19.34;92.22
55755;BME280;41674;52.290;-1.474;2022-08-03T04:30:45;100547.61;;;18.38;95.93
55755;BME280;41674;52.290;-1.474;2022-08-03T04:33:18;100536.83;;;18.80;93.31
55755;BME280;41674;52.290;-1.474;2022-08-03T04:35:52;100543.31;;;18.17;96.46
55755;BME280;41674;52.290;-1.474;2022-08-03T04:38:24;100553.83;;;18.04;98.28
55755;BME280;41674;52.290;-1.474;2022-08-03T04:40:58;100550.44;;;17.21;100.00
55755;BME280;41674;52.290;-1.474;2022-08-03T04:43:32;100550.20;;;18.34;94.64
55755;BME280;41674;52.290;-1.474;2022-08-03T04:46:06;100551.02;;;17.95;97.28
55755;BME280;41674;52.290;-1.474;2022-08-03T04:48:38;100549.32;;;17.43;98.89
55755;BME280;41674;52.290;-1.474;2022-08-03T04:51:10;100549.43;;;18.19;96.00
55755;BME280;41674;52.290;-1.474;2022-08-03T04:53:42;100553.34;;;18.18;96.12
55755;BME280;41674;52.290;-1.474;2022-08-03T04:56:14;100550.11;;;17.77;97.77
55755;BME280;41674;52.290;-1.474;2022-08-03T04:58:46;100551.76;;;18.08;95.63
55755;BME280;41674;52.290;-1.474;2022-08-03T05:01:18;100557.33;;;18.43;94.93
55755;BME280;41674;52.290;-1.474;2022-08-03T05:03:49;100552.32;;;18.04;97.60
55755;BME280;41674;52.290;-1.474;2022-08-03T05:06:21;100558.10;;;18.29;94.57
55755;BME280;41674;52.290;-1.474;2022-08-03T05:08:52;100552.75;;;18.15;95.53
55755;BME280;41674;52.290;-1.474;2022-08-03T05:11:23;100551.77;;;17.62;97.45
55755;BME280;41674;52.290;-1.474;2022-08-03T05:13:54;100551.51;;;18.31;93.89
55755;BME280;41674;52.290;-1.474;2022-08-03T05:16:26;100563.34;;;18.08;96.29
55755;BME280;41674;52.290;-1.474;2022-08-03T05:18:57;100567.50;;;18.92;92.45
55755;BME280;41674;52.290;-1.474;2022-08-03T05:21:28;100568.49;;;18.21;94.65
55755;BME280;41674;52.290;-1.474;2022-08-03T05:23:59;100568.01;;;17.60;96.07
55755;BME280;41674;52.290;-1.474;2022-08-03T05:26:30;100573.12;;;18.55;93.25
55755;BME280;41674;52.290;-1.474;2022-08-03T05:29:02;100578.32;;;18.25;93.60
55755;BME280;41674;52.290;-1.474;2022-08-03T05:31:33;100575.10;;;18.84;91.84
55755;BME280;41674;52.290;-1.474;2022-08-03T05:34:04;100578.17;;;18.39;91.96
55755;BME280;41674;52.290;-1.474;2022-08-03T05:36:36;100576.10;;;19.03;89.44
55755;BME280;41674;52.290;-1.474;2022-08-03T05:39:08;100575.79;;;18.61;90.63
55755;BME280;41674;52.290;-1.474;2022-08-03T05:41:39;100581.57;;;18.25;94.07
55755;BME280;41674;52.290;-1.474;2022-08-03T05:44:10;100580.55;;;17.72;96.70
55755;BME280;41674;52.290;-1.474;2022-08-03T05:46:41;100579.89;;;18.12;95.54
55755;BME280;41674;52.290;-1.474;2022-08-03T05:49:13;100580.34;;;18.56;93.90
55755;BME280;41674;52.290;-1.474;2022-08-03T05:51:44;100580.31;;;17.93;97.14
55755;BME280;41674;52.290;-1.474;2022-08-03T05:54:16;100584.54;;;18.03;96.52
55755;BME280;41674;52.290;-1.474;2022-08-03T05:56:52;100577.97;;;17.89;96.85
55755;BME280;41674;52.290;-1.474;2022-08-03T05:59:24;100584.64;;;17.64;98.82
55755;BME280;41674;52.290;-1.474;2022-08-03T06:02:05;100581.70;;;18.13;97.71
55755;BME280;41674;52.290;-1.474;2022-08-03T06:04:36;100585.83;;;18.02;96.66
55755;BME280;41674;52.290;-1.474;2022-08-03T06:07:08;100586.34;;;18.32;95.08
55755;BME280;41674;52.290;-1.474;2022-08-03T06:09:39;100579.09;;;18.69;94.32
55755;BME280;41674;52.290;-1.474;2022-08-03T06:12:10;100574.50;;;18.58;95.04
55755;BME280;41674;52.290;-1.474;2022-08-03T06:14:41;100572.17;;;17.80;99.27
55755;BME280;41674;52.290;-1.474;2022-08-03T06:17:13;100573.32;;;18.64;94.30
55755;BME280;41674;52.290;-1.474;2022-08-03T06:19:45;100574.73;;;18.80;94.53
55755;BME280;41674;52.290;-1.474;2022-08-03T06:22:16;100568.41;;;18.92;94.02
55755;BME280;41674;52.290;-1.474;2022-08-03T06:24:47;100565.18;;;19.53;90.18
55755;BME280;41674;52.290;-1.474;2022-08-03T06:27:19;100572.79;;;19.33;90.66
55755;BME280;41674;52.290;-1.474;2022-08-03T06:29:51;100572.82;;;19.88;88.62
55755;BME280;41674;52.290;-1.474;2022-08-03T06:32:22;100563.77;;;20.06;86.54
55755;BME280;41674;52.290;-1.474;2022-08-03T06:34:53;100560.98;;;19.22;90.81
55755;BME280;41674;52.290;-1.474;2022-08-03T06:37:24;100565.67;;;19.77;89.10
55755;BME280;41674;52.290;-1.474;2022-08-03T06:39:55;100565.17;;;19.45;89.76
55755;BME280;41674;52.290;-1.474;2022-08-03T06:42:27;100571.46;;;19.76;88.35
55755;BME280;41674;52.290;-1.474;2022-08-03T06:44:58;100567.59;;;19.70;88.86
55755;BME280;41674;52.290;-1.474;2022-08-03T06:47:29;100564.38;;;20.72;84.25
55755;BME280;41674;52.290;-1.474;2022-08-03T06:50:00;100566.83;;;20.15;86.52
55755;BME280;41674;52.290;-1.474;2022-08-03T06:52:32;100570.05;;;19.98;86.63
55755;BME280;41674;52.290;-1.474;2022-08-03T06:55:04;100571.10;;;20.68;83.75
55755;BME280;41674;52.290;-1.474;2022-08-03T06:57:35;100568.70;;;20.36;84.48
55755;BME280;41674;52.290;-1.474;2022-08-03T07:00:07;100568.83;;;19.49;88.48
55755;BME280;41674;52.290;-1.474;2022-08-03T07:02:39;100565.59;;;20.01;88.54
55755;BME280;41674;52.290;-1.474;2022-08-03T07:05:11;100564.09;;;19.97;88.99
55755;BME280;41674;52.290;-1.474;2022-08-03T07:07:43;100564.45;;;20.32;85.79
55755;BME280;41674;52.290;-1.474;2022-08-03T07:10:14;100556.12;;;20.55;84.35
55755;BME280;41674;52.290;-1.474;2022-08-03T07:12:46;100553.66;;;20.74;83.48
55755;BME280;41674;52.290;-1.474;2022-08-03T07:15:17;100562.52;;;21.15;82.27
55755;BME280;41674;52.290;-1.474;2022-08-03T07:17:49;100558.91;;;21.25;81.15
55755;BME280;41674;52.290;-1.474;2022-08-03T07:20:20;100562.45;;;21.27;80.84
55755;BME280;41674;52.290;-1.474;2022-08-03T07:22:51;100566.68;;;21.23;80.45
55755;BME280;41674;52.290;-1.474;2022-08-03T07:25:23;100575.40;;;20.05;85.97
55755;BME280;41674;52.290;-1.474;2022-08-03T07:27:54;100575.71;;;21.59;80.52
55755;BME280;41674;52.290;-1.474;2022-08-03T07:30:25;100575.50;;;21.27;80.32
55755;BME280;41674;52.290;-1.474;2022-08-03T07:32:56;100584.24;;;21.03;83.18
55755;BME280;41674;52.290;-1.474;2022-08-03T07:35:27;100588.01;;;21.30;80.93
55755;BME280;41674;52.290;-1.474;2022-08-03T07:37:59;100590.31;;;20.88;82.20
55755;BME280;41674;52.290;-1.474;2022-08-03T07:40:30;100589.41;;;21.43;79.87
55755;BME280;41674;52.290;-1.474;2022-08-03T07:43:01;100591.33;;;20.97;81.22
55755;BME280;41674;52.290;-1.474;2022-08-03T07:45:33;100594.95;;;20.77;82.68
55755;BME280;41674;52.290;-1.474;2022-08-03T07:48:05;100588.30;;;21.57;79.96
55755;BME280;41674;52.290;-1.474;2022-08-03T07:50:36;100590.99;;;20.15;85.66
55755;BME280;41674;52.290;-1.474;2022-08-03T07:53:07;100590.38;;;19.85;85.34
55755;BME280;41674;52.290;-1.474;2022-08-03T07:55:38;100589.79;;;21.55;80.29
55755;BME280;41674;52.290;-1.474;2022-08-03T07:58:11;100590.28;;;21.32;79.30
55755;BME280;41674;52.290;-1.474;2022-08-03T08:00:43;100592.53;;;21.29;79.93
55755;BME280;41674;52.290;-1.474;2022-08-03T08:03:15;100591.86;;;21.04;81.52
55755;BME280;41674;52.290;-1.474;2022-08-03T08:05:47;100597.32;;;20.59;82.99
55755;BME280;41674;52.290;-1.474;2022-08-03T08:08:19;100593.10;;;20.50;83.54
55755;BME280;41674;52.290;-1.474;2022-08-03T08:10:51;100594.31;;;20.59;83.20
55755;BME280;41674;52.290;-1.474;2022-08-03T08:13:22;100589.70;;;20.56;82.45
55755;BME280;41674;52.290;-1.474;2022-08-03T08:15:54;100595.13;;;20.11;84.39
55755;BME280;41674;52.290;-1.474;2022-08-03T08:18:25;100600.73;;;20.23;85.05
55755;BME280;41674;52.290;-1.474;2022-08-03T08:20:57;100595.93;;;20.16;86.94
55755;BME280;41674;52.290;-1.474;2022-08-03T08:23:28;100601.78;;;20.21;85.49
55755;BME280;41674;52.290;-1.474;2022-08-03T08:25:59;100597.20;;;20.48;85.06
55755;BME280;41674;52.290;-1.474;2022-08-03T08:28:31;100598.08;;;20.73;84.00
55755;BME280;41674;52.290;-1.474;2022-08-03T08:31:02;100596.05;;;20.68;84.17
55755;BME280;41674;52.290;-1.474;2022-08-03T08:33:33;100602.46;;;20.53;84.54
55755;BME280;41674;52.290;-1.474;2022-08-03T08:36:05;100600.31;;;20.86;83.70
55755;BME280;41674;52.290;-1.474;2022-08-03T08:38:36;100593.50;;;20.86;83.87
55755;BME280;41674;52.290;-1.474;2022-08-03T08:41:08;100600.02;;;20.34;83.57
55755;BME280;41674;52.290;-1.474;2022-08-03T08:43:41;100591.39;;;21.22;81.92
55755;BME280;41674;52.290;-1.474;2022-08-03T08:46:13;100590.48;;;21.63;80.82
55755;BME280;41674;52.290;-1.474;2022-08-03T08:48:47;100591.14;;;21.33;81.13
55755;BME280;41674;52.290;-1.474;2022-08-03T08:51:21;100589.01;;;21.76;80.43
55755;BME280;41674;52.290;-1.474;2022-08-03T08:53:53;100590.78;;;22.33;77.07
55755;BME280;41674;52.290;-1.474;2022-08-03T08:56:25;100591.98;;;21.95;79.73
55755;BME280;41674;52.290;-1.474;2022-08-03T08:58:59;100599.68;;;21.53;80.90
55755;BME280;41674;52.290;-1.474;2022-08-03T09:01:30;100598.95;;;21.47;80.05
55755;BME280;41674;52.290;-1.474;2022-08-03T09:04:05;100598.41;;;22.16;78.74
55755;BME280;41674;52.290;-1.474;2022-08-03T09:06:37;100618.08;;;21.10;86.71
55755;BME280;41674;52.290;-1.474;2022-08-03T09:09:08;100607.32;;;20.35;94.78
55755;BME280;41674;52.290;-1.474;2022-08-03T09:11:42;100616.39;;;19.80;97.92
55755;BME280;41674;52.290;-1.474;2022-08-03T09:14:14;100610.06;;;19.89;96.00
55755;BME280;41674;52.290;-1.474;2022-08-03T09:17:02;100612.41;;;19.61;96.93
55755;BME280;41674;52.290;-1.474;2022-08-03T09:19:34;100608.25;;;19.61;98.35
55755;BME280;41674;52.290;-1.474;2022-08-03T09:22:08;100596.51;;;20.43;93.62
55755;BME280;41674;52.290;-1.474;2022-08-03T09:24:55;100589.84;;;19.99;95.91
55755;BME280;41674;52.290;-1.474;2022-08-03T09:27:27;100589.15;;;19.87;98.48
55755;BME280;41674;52.290;-1.474;2022-08-03T09:29:58;100592.61;;;20.53;93.80
55755;BME280;41674;52.290;-1.474;2022-08-03T09:32:29;100592.57;;;20.35;90.61
55755;BME280;41674;52.290;-1.474;2022-08-03T09:35:04;100589.28;;;20.58;91.07
55755;BME280;41674;52.290;-1.474;2022-08-03T09:37:36;100593.45;;;20.75;90.39
55755;BME280;41674;52.290;-1.474;2022-08-03T09:40:08;100592.93;;;20.15;92.64
55755;BME280;41674;52.290;-1.474;2022-08-03T09:42:55;100590.27;;;20.50;90.67
55755;BME280;41674;52.290;-1.474;2022-08-03T09:45:27;100588.94;;;20.78;90.55
55755;BME280;41674;52.290;-1.474;2022-08-03T09:48:19;100597.61;;;20.89;89.43
55755;BME280;41674;52.290;-1.474;2022-08-03T09:50:53;100595.86;;;21.98;83.48
55755;BME280;41674;52.290;-1.474;2022-08-03T09:53:25;100600.71;;;21.70;83.22
55755;BME280;41674;52.290;-1.474;2022-08-03T09:55:58;100590.07;;;22.48;82.71
55755;BME280;41674;52.290;-1.474;2022-08-03T09:58:31;100596.73;;;22.20;81.17
55755;BME280;41674;52.290;-1.474;2022-08-03T10:01:04;100586.27;;;22.26;81.30
55755;BME280;41674;52.290;-1.474;2022-08-03T10:03:37;100596.94;;;23.02;78.74
55755;BME280;41674;52.290;-1.474;2022-08-03T10:06:15;100591.45;;;22.21;80.72
55755;BME280;41674;52.290;-1.474;2022-08-03T10:09:04;100595.10;;;22.07;80.74
55755;BME280;41674;52.290;-1.474;2022-08-03T10:11:37;100597.02;;;21.68;80.21
55755;BME280;41674;52.290;-1.474;2022-08-03T10:14:10;100593.72;;;22.35;78.77
55755;BME280;41674;52.290;-1.474;2022-08-03T10:16:42;100595.22;;;22.62;76.07
55755;BME280;41674;52.290;-1.474;2022-08-03T10:19:15;100580.44;;;23.93;73.19
55755;BME280;41674;52.290;-1.474;2022-08-03T10:21:49;100581.30;;;24.43;71.23
55755;BME280;41674;52.290;-1.474;2022-08-03T10:24:25;100571.32;;;25.45;65.84
55755;BME280;41674;52.290;-1.474;2022-08-03T10:27:01;100572.58;;;25.70;65.54
55755;BME280;41674;52.290;-1.474;2022-08-03T10:29:37;100581.88;;;25.49;64.77
55755;BME280;41674;52.290;-1.474;2022-08-03T10:32:12;100583.33;;;23.07;72.95
55755;BME280;41674;52.290;-1.474;2022-08-03T10:34:46;100590.51;;;23.09;73.12
55755;BME280;41674;52.290;-1.474;2022-08-03T10:37:22;100591.70;;;22.25;74.85
55755;BME280;41674;52.290;-1.474;2022-08-03T10:39:55;100603.37;;;20.74;81.53
55755;BME280;41674;52.290;-1.474;2022-08-03T10:42:28;100593.01;;;21.44;80.19
55755;BME280;41674;52.290;-1.474;2022-08-03T10:45:04;100598.92;;;20.84;82.68
55755;BME280;41674;52.290;-1.474;2022-08-03T10:47:36;100607.63;;;21.47;82.37
55755;BME280;41674;52.290;-1.474;2022-08-03T10:50:09;100606.47;;;21.22;85.99
55755;BME280;41674;52.290;-1.474;2022-08-03T10:52:59;100603.87;;;21.50;86.31
55755;BME280;41674;52.290;-1.474;2022-08-03T10:55:31;100609.28;;;22.45;79.50
55755;BME280;41674;52.290;-1.474;2022-08-03T10:58:03;100601.67;;;21.53;84.43
55755;BME280;41674;52.290;-1.474;2022-08-03T11:00:49;100600.95;;;22.72;79.37
55755;BME280;41674;52.290;-1.474;2022-08-03T11:03:20;100599.27;;;23.57;74.69
55755;BME280;41674;52.290;-1.474;2022-08-03T11:05:51;100594.26;;;24.05;72.31
55755;BME280;41674;52.290;-1.474;2022-08-03T11:08:25;100597.96;;;24.15;71.86
55755;BME280;41674;52.290;-1.474;2022-08-03T11:11:00;100593.46;;;24.51;69.06
55755;BME280;41674;52.290;-1.474;2022-08-03T11:13:32;100604.21;;;22.94;71.92
55755;BME280;41674;52.290;-1.474;2022-08-03T11:16:19;100609.66;;;22.43;73.23
55755;BME280;41674;52.290;-1.474;2022-08-03T11:18:59;100600.82;;;24.24;68.73
55755;BME280;41674;52.290;-1.474;2022-08-03T11:22:03;100593.88;;;25.28;65.45
55755;BME280;41674;52.290;-1.474;2022-08-03T11:25:07;100591.59;;;26.08;63.96
55755;BME280;41674;52.290;-1.474;2022-08-03T11:27:39;100597.05;;;25.22;65.35
55755;BME280;41674;52.290;-1.474;2022-08-03T11:30:21;100608.90;;;25.42;65.70
55755;BME280;41674;52.290;-1.474;2022-08-03T11:32:57;100605.09;;;24.63;67.16
55755;BME280;41674;52.290;-1.474;2022-08-03T11:35:30;100604.33;;;25.32;66.52
55755;BME280;41674;52.290;-1.474;2022-08-03T11:38:05;100609.05;;;24.86;66.36
55755;BME280;41674;52.290;-1.474;2022-08-03T11:40:41;100607.96;;;25.96;63.37
55755;BME280;41674;52.290;-1.474;2022-08-03T11:43:46;100605.80;;;25.83;63.55
55755;BME280;41674;52.290;-1.474;2022-08-03T11:46:17;100607.72;;;25.55;63.36
55755;BME280;41674;52.290;-1.474;2022-08-03T11:48:50;100611.97;;;25.37;63.74
55755;BME280;41674;52.290;-1.474;2022-08-03T11:51:23;100609.37;;;24.86;64.91
55755;BME280;41674;52.290;-1.474;2022-08-03T11:53:58;100619.62;;;25.03;62.98
55755;BME280;41674;52.290;-1.474;2022-08-03T11:56:43;100624.35;;;24.30;69.31
55755;BME280;41674;52.290;-1.474;2022-08-03T11:59:15;100628.47;;;22.91;73.89
55755;BME280;41674;52.290;-1.474;2022-08-03T12:01:46;100627.97;;;22.70;75.39
55755;BME280;41674;52.290;-1.474;2022-08-03T12:04:18;100631.29;;;22.00;77.28
55755;BME280;41674;52.290;-1.474;2022-08-03T12:07:04;100627.27;;;22.61;72.46
55755;BME280;41674;52.290;-1.474;2022-08-03T12:09:36;100628.56;;;23.37;70.58
55755;BME280;41674;52.290;-1.474;2022-08-03T12:12:07;100626.35;;;24.13;67.16
55755;BME280;41674;52.290;-1.474;2022-08-03T12:14:39;100615.89;;;24.31;65.81
55755;BME280;41674;52.290;-1.474;2022-08-03T12:17:16;100631.78;;;23.38;65.25
55755;BME280;41674;52.290;-1.474;2022-08-03T12:19:47;100644.66;;;22.80;66.36
55755;BME280;41674;52.290;-1.474;2022-08-03T12:22:30;100636.41;;;22.38;67.60
55755;BME280;41674;52.290;-1.474;2022-08-03T12:25:02;100636.09;;;23.91;63.62
55755;BME280;41674;52.290;-1.474;2022-08-03T12:27:35;100628.79;;;23.94;61.10
55755;BME280;41674;52.290;-1.474;2022-08-03T12:30:07;100634.78;;;23.43;63.07
55755;BME280;41674;52.290;-1.474;2022-08-03T12:32:42;100639.62;;;23.09;63.13
55755;BME280;41674;52.290;-1.474;2022-08-03T12:35:21;100636.42;;;23.97;62.37
55755;BME280;41674;52.290;-1.474;2022-08-03T12:37:53;100632.55;;;24.27;59.22
55755;BME280;41674;52.290;-1.474;2022-08-03T12:40:25;100629.22;;;25.02;57.04
55755;BME280;41674;52.290;-1.474;2022-08-03T12:42:58;100621.86;;;26.20;53.79
55755;BME280;41674;52.290;-1.474;2022-08-03T12:45:30;100624.65;;;26.22;52.76
55755;BME280;41674;52.290;-1.474;2022-08-03T12:48:01;100629.82;;;26.06;52.63
55755;BME280;41674;52.290;-1.474;2022-08-03T12:50:33;100635.69;;;24.29;56.46
55755;BME280;41674;52.290;-1.474;2022-08-03T12:53:07;100636.53;;;23.67;58.67
55755;BME280;41674;52.290;-1.474;2022-08-03T12:55:39;100624.03;;;24.16;57.14
55755;BME280;41674;52.290;-1.474;2022-08-03T12:58:28;100619.28;;;24.13;58.51
55755;BME280;41674;52.290;-1.474;2022-08-03T13:01:01;100619.22;;;24.42;55.26
55755;BME280;41674;52.290;-1.474;2022-08-03T13:03:39;100614.18;;;26.48;51.59
55755;BME280;41674;52.290;-1.474;2022-08-03T13:06:11;100616.39;;;26.31;50.49
55755;BME280;41674;52.290;-1.474;2022-08-03T13:08:43;100618.36;;;26.78;49.94
55755;BME280;41674;52.290;-1.474;2022-08-03T13:11:20;100613.77;;;25.74;51.15
55755;BME280;41674;52.290;-1.474;2022-08-03T13:13:53;100610.18;;;25.32;52.02